To NAV CANADA Home Page Login to a new session Search on AWWS site Disclaimer Vers la page française équivalente Tips FAQ What's new on the site To the Forecasts and Observations / NOTAM section To "File a Flight Plan" website Publications and other links Update of the User's profile FIC Telephone Numbers My Weather Data Folder Route Weather Data Regional Weather Data Local Weather Data To the Forecasts and Observations / NOTAM section
Request Generated 11/13/2018 at 18:04:46 UTC . Weather information available at that time is displayed.

METAR/TAF

THOMPSON/MB    

METAR CYTH 131700Z 00000KT 15SM SCT028 BKN210 M14/M17 A3030 RMK SC3CC3 SLP287=
METAR CYTH 131600Z 35004KT 15SM FEW057 FEW210 M14/M17 A3029 RMK SC1CI1 SC TR SLP285=
METAR CYTH 131500Z 31004KT 15SM FEW056 SCT210 M15/M18 A3028 RMK SC2CI1 SLP283=

TAF CYTH 131238Z 1313/1401 28006KT P6SM -SN BKN040 TEMPO 1313/1401
P6SM NSW SCT040
BECMG 1314/1316 34006KT
RMK NXT FCST BY 131900Z=
Your time UTC time
Weather data provided by Environment Canada and NAV CANADA